sensor_id;sensor_type;location;lat;lon;timestamp;pressure;altitude;pressure_sealevel;temperature;humidity
28628;BME280;15815;46.760;19.604;2024-03-08T00:00:29;100646.78;;;7.15;97.62
28628;BME280;15815;46.760;19.604;2024-03-08T00:02:54;100636.31;;;7.12;97.32
28628;BME280;15815;46.760;19.604;2024-03-08T00:05:20;100644.16;;;7.03;97.82
28628;BME280;15815;46.760;19.604;2024-03-08T00:07:48;100637.31;;;7.00;98.24
28628;BME280;15815;46.760;19.604;2024-03-08T00:10:17;100639.31;;;7.00;98.06
28628;BME280;15815;46.760;19.604;2024-03-08T00:12:45;100635.34;;;7.01;98.11
28628;BME280;15815;46.760;19.604;2024-03-08T00:15:20;100637.88;;;7.09;98.24
28628;BME280;15815;46.760;19.604;2024-03-08T00:17:45;100646.41;;;7.17;97.66
28628;BME280;15815;46.760;19.604;2024-03-08T00:20:11;100617.81;;;7.04;97.63
28628;BME280;15815;46.760;19.604;2024-03-08T00:22:39;100644.22;;;7.06;97.79
28628;BME280;15815;46.760;19.604;2024-03-08T00:25:06;100651.56;;;7.15;97.98
28628;BME280;15815;46.760;19.604;2024-03-08T00:27:32;100629.75;;;7.01;97.30
28628;BME280;15815;46.760;19.604;2024-03-08T00:29:57;100636.56;;;7.03;97.53
28628;BME280;15815;46.760;19.604;2024-03-08T00:32:23;100644.22;;;7.06;97.90
28628;BME280;15815;46.760;19.604;2024-03-08T00:34:48;100636.13;;;7.01;97.95
28628;BME280;15815;46.760;19.604;2024-03-08T00:37:14;100641.84;;;7.08;97.84
28628;BME280;15815;46.760;19.604;2024-03-08T00:39:53;100636.25;;;7.08;98.14
28628;BME280;15815;46.760;19.604;2024-03-08T00:42:19;100626.13;;;7.00;97.88
28628;BME280;15815;46.760;19.604;2024-03-08T00:44:45;100633.50;;;7.12;97.52
28628;BME280;15815;46.760;19.604;2024-03-08T00:47:20;100620.59;;;7.04;97.20
28628;BME280;15815;46.760;19.604;2024-03-08T00:49:46;100634.78;;;7.15;96.87
28628;BME280;15815;46.760;19.604;2024-03-08T00:52:11;100618.31;;;7.09;97.25
28628;BME280;15815;46.760;19.604;2024-03-08T00:54:44;100621.84;;;7.06;97.35
28628;BME280;15815;46.760;19.604;2024-03-08T00:57:12;100623.88;;;7.09;98.17
28628;BME280;15815;46.760;19.604;2024-03-08T00:59:38;100630.00;;;7.15;98.25
28628;BME280;15815;46.760;19.604;2024-03-08T01:02:04;100623.88;;;7.09;97.61
28628;BME280;15815;46.760;19.604;2024-03-08T01:04:29;100623.41;;;7.04;98.16
28628;BME280;15815;46.760;19.604;2024-03-08T01:06:56;100625.75;;;7.02;98.84
28628;BME280;15815;46.760;19.604;2024-03-08T01:09:22;100620.19;;;7.02;98.87
28628;BME280;15815;46.760;19.604;2024-03-08T01:11:48;100627.75;;;7.01;98.83
28628;BME280;15815;46.760;19.604;2024-03-08T01:14:13;100628.94;;;7.00;98.93
28628;BME280;15815;46.760;19.604;2024-03-08T01:16:39;100622.09;;;6.98;98.77
28628;BME280;15815;46.760;19.604;2024-03-08T01:19:05;100625.00;;;7.05;98.65
28628;BME280;15815;46.760;19.604;2024-03-08T01:21:30;100614.41;;;6.91;98.78
28628;BME280;15815;46.760;19.604;2024-03-08T01:23:56;100611.19;;;6.89;98.85
28628;BME280;15815;46.760;19.604;2024-03-08T01:26:21;100610.44;;;6.92;98.92
28628;BME280;15815;46.760;19.604;2024-03-08T01:28:54;100621.72;;;6.99;99.63
28628;BME280;15815;46.760;19.604;2024-03-08T01:31:20;100620.88;;;6.95;99.28
28628;BME280;15815;46.760;19.604;2024-03-08T01:33:45;100610.00;;;6.90;98.89
28628;BME280;15815;46.760;19.604;2024-03-08T01:36:11;100615.16;;;6.88;99.44
28628;BME280;15815;46.760;19.604;2024-03-08T01:38:37;100624.47;;;6.96;98.97
28628;BME280;15815;46.760;19.604;2024-03-08T01:41:02;100623.28;;;6.97;99.47
28628;BME280;15815;46.760;19.604;2024-03-08T01:43:28;100622.47;;;6.96;99.27
28628;BME280;15815;46.760;19.604;2024-03-08T01:46:01;100611.25;;;6.93;99.33
28628;BME280;15815;46.760;19.604;2024-03-08T01:48:30;100613.47;;;6.83;99.29
28628;BME280;15815;46.760;19.604;2024-03-08T01:51:01;100629.56;;;6.90;99.27
28628;BME280;15815;46.760;19.604;2024-03-08T01:53:27;100625.16;;;6.89;99.92
28628;BME280;15815;46.760;19.604;2024-03-08T01:55:57;100613.13;;;6.85;99.73
28628;BME280;15815;46.760;19.604;2024-03-08T01:58:24;100631.41;;;6.82;100.00
28628;BME280;15815;46.760;19.604;2024-03-08T02:00:53;100618.59;;;6.81;100.00
28628;BME280;15815;46.760;19.604;2024-03-08T02:03:19;100615.44;;;6.83;100.00
28628;BME280;15815;46.760;19.604;2024-03-08T02:05:45;100614.72;;;6.86;100.00
28628;BME280;15815;46.760;19.604;2024-03-08T02:08:15;100623.97;;;6.90;100.00
28628;BME280;15815;46.760;19.604;2024-03-08T02:10:41;100621.72;;;6.99;99.46
28628;BME280;15815;46.760;19.604;2024-03-08T02:13:12;100620.13;;;6.98;99.16
28628;BME280;15815;46.760;19.604;2024-03-08T02:16:19;100624.84;;;6.94;99.34
28628;BME280;15815;46.760;19.604;2024-03-08T02:18:45;100625.59;;;6.91;99.66
28628;BME280;15815;46.760;19.604;2024-03-08T02:21:17;100634.53;;;7.00;99.20
28628;BME280;15815;46.760;19.604;2024-03-08T02:23:43;100602.59;;;6.78;99.98
28628;BME280;15815;46.760;19.604;2024-03-08T02:26:09;100632.91;;;6.99;99.44
28628;BME280;15815;46.760;19.604;2024-03-08T02:28:40;100613.53;;;6.87;99.60
28628;BME280;15815;46.760;19.604;2024-03-08T02:31:06;100623.22;;;6.93;99.30
28628;BME280;15815;46.760;19.604;2024-03-08T02:33:31;100611.94;;;6.86;99.56
28628;BME280;15815;46.760;19.604;2024-03-08T02:36:00;100623.22;;;6.93;99.56
28628;BME280;15815;46.760;19.604;2024-03-08T02:38:26;100616.41;;;6.91;99.53
28628;BME280;15815;46.760;19.604;2024-03-08T02:40:53;100617.59;;;6.90;99.54
28628;BME280;15815;46.760;19.604;2024-03-08T02:43:19;100617.69;;;6.97;98.83
28628;BME280;15815;46.760;19.604;2024-03-08T02:45:46;100620.88;;;6.95;98.90
28628;BME280;15815;46.760;19.604;2024-03-08T02:48:21;100628.50;;;6.98;99.30
28628;BME280;15815;46.760;19.604;2024-03-08T02:50:47;100624.72;;;6.87;99.61
28628;BME280;15815;46.760;19.604;2024-03-08T02:53:18;100630.16;;;6.80;100.00
28628;BME280;15815;46.760;19.604;2024-03-08T02:55:44;100629.41;;;6.83;100.00
28628;BME280;15815;46.760;19.604;2024-03-08T02:58:21;100624.72;;;6.87;100.00
28628;BME280;15815;46.760;19.604;2024-03-08T03:00:46;100627.16;;;6.89;100.00
28628;BME280;15815;46.760;19.604;2024-03-08T03:03:13;100624.34;;;6.89;99.54
28628;BME280;15815;46.760;19.604;2024-03-08T03:05:38;100638.44;;;6.96;99.59
28628;BME280;15815;46.760;19.604;2024-03-08T03:08:04;100634.53;;;7.00;98.92
28628;BME280;15815;46.760;19.604;2024-03-08T03:10:31;100625.16;;;6.89;99.05
28628;BME280;15815;46.760;19.604;2024-03-08T03:12:57;100623.97;;;6.90;99.10
28628;BME280;15815;46.760;19.604;2024-03-08T03:15:22;100629.25;;;6.95;98.43
28628;BME280;15815;46.760;19.604;2024-03-08T03:17:49;100639.38;;;7.03;97.76
28628;BME280;15815;46.760;19.604;2024-03-08T03:20:14;100635.38;;;7.04;98.15
28628;BME280;15815;46.760;19.604;2024-03-08T03:22:49;100641.34;;;7.03;98.27
28628;BME280;15815;46.760;19.604;2024-03-08T03:25:15;100637.25;;;6.97;98.46
28628;BME280;15815;46.760;19.604;2024-03-08T03:27:40;100636.03;;;6.94;98.68
28628;BME280;15815;46.760;19.604;2024-03-08T03:30:09;100640.91;;;7.01;98.19
28628;BME280;15815;46.760;19.604;2024-03-08T03:32:38;100632.00;;;6.92;98.32
28628;BME280;15815;46.760;19.604;2024-03-08T03:35:04;100640.81;;;6.94;98.45
28628;BME280;15815;46.760;19.604;2024-03-08T03:37:33;100642.72;;;6.90;98.40
28628;BME280;15815;46.760;19.604;2024-03-08T03:39:58;100647.19;;;6.94;98.79
28628;BME280;15815;46.760;19.604;2024-03-08T03:42:24;100649.56;;;6.92;98.69
28628;BME280;15815;46.760;19.604;2024-03-08T03:44:49;100646.28;;;6.87;99.47
28628;BME280;15815;46.760;19.604;2024-03-08T03:47:15;100646.34;;;6.90;98.81
28628;BME280;15815;46.760;19.604;2024-03-08T03:49:41;100643.00;;;6.85;99.26
28628;BME280;15815;46.760;19.604;2024-03-08T03:52:16;100644.28;;;6.87;98.89
28628;BME280;15815;46.760;19.604;2024-03-08T03:54:41;100641.56;;;6.91;98.80
28628;BME280;15815;46.760;19.604;2024-03-08T03:57:07;100647.94;;;6.91;98.88
28628;BME280;15815;46.760;19.604;2024-03-08T03:59:32;100649.19;;;6.94;98.96
28628;BME280;15815;46.760;19.604;2024-03-08T04:01:58;100657.19;;;6.95;98.98
28628;BME280;15815;46.760;19.604;2024-03-08T04:04:24;100656.00;;;6.96;98.64
28628;BME280;15815;46.760;19.604;2024-03-08T04:06:49;100651.16;;;6.93;98.31
28628;BME280;15815;46.760;19.604;2024-03-08T04:09:15;100646.34;;;6.90;98.78
28628;BME280;15815;46.760;19.604;2024-03-08T04:11:40;100647.00;;;6.83;99.21
28628;BME280;15815;46.760;19.604;2024-03-08T04:14:06;100646.28;;;6.87;99.01
28628;BME280;15815;46.760;19.604;2024-03-08T04:16:34;100650.31;;;6.89;99.03
28628;BME280;15815;46.760;19.604;2024-03-08T04:19:00;100647.06;;;6.87;99.09
28628;BME280;15815;46.760;19.604;2024-03-08T04:21:25;100650.00;;;6.94;98.80
28628;BME280;15815;46.760;19.604;2024-03-08T04:23:57;100651.06;;;6.86;98.42
28628;BME280;15815;46.760;19.604;2024-03-08T04:26:22;100651.13;;;6.90;98.69
28628;BME280;15815;46.760;19.604;2024-03-08T04:28:48;100649.56;;;6.92;97.93
28628;BME280;15815;46.760;19.604;2024-03-08T04:34:21;100655.53;;;6.91;98.18
28628;BME280;15815;46.760;19.604;2024-03-08T04:36:48;100661.97;;;6.95;98.40
28628;BME280;15815;46.760;19.604;2024-03-08T04:39:40;100667.19;;;6.96;98.29
28628;BME280;15815;46.760;19.604;2024-03-08T04:42:06;100662.34;;;6.93;98.09
28628;BME280;15815;46.760;19.604;2024-03-08T04:44:32;100657.94;;;6.92;97.88
28628;BME280;15815;46.760;19.604;2024-03-08T04:47:00;100666.31;;;6.92;97.71
28628;BME280;15815;46.760;19.604;2024-03-08T04:49:25;100674.34;;;6.94;97.52
28628;BME280;15815;46.760;19.604;2024-03-08T04:51:51;100666.31;;;6.92;97.20
28628;BME280;15815;46.760;19.604;2024-03-08T04:54:17;100653.97;;;6.93;97.56
28628;BME280;15815;46.760;19.604;2024-03-08T04:56:42;100666.19;;;6.85;97.70
28628;BME280;15815;46.760;19.604;2024-03-08T04:59:08;100667.44;;;6.88;97.92
28628;BME280;15815;46.760;19.604;2024-03-08T05:04:49;100660.63;;;6.85;97.55
28628;BME280;15815;46.760;19.604;2024-03-08T05:07:18;100671.84;;;6.89;97.28
28628;BME280;15815;46.760;19.604;2024-03-08T05:09:57;100683.91;;;6.93;96.92
28628;BME280;15815;46.760;19.604;2024-03-08T05:12:22;100669.13;;;6.92;97.02
28628;BME280;15815;46.760;19.604;2024-03-08T05:14:57;100672.28;;;6.91;97.31
28628;BME280;15815;46.760;19.604;2024-03-08T05:17:22;100677.81;;;6.87;97.25
28628;BME280;15815;46.760;19.604;2024-03-08T05:19:48;100675.44;;;6.89;97.21
28628;BME280;15815;46.760;19.604;2024-03-08T05:22:22;100681.47;;;6.91;97.58
28628;BME280;15815;46.760;19.604;2024-03-08T05:24:48;100676.19;;;6.86;97.50
28628;BME280;15815;46.760;19.604;2024-03-08T05:27:13;100679.88;;;6.90;97.44
28628;BME280;15815;46.760;19.604;2024-03-08T05:29:39;100679.00;;;6.86;97.06
28628;BME280;15815;46.760;19.604;2024-03-08T05:32:04;100689.88;;;6.91;97.50
28628;BME280;15815;46.760;19.604;2024-03-08T05:34:30;100671.50;;;6.71;98.37
28628;BME280;15815;46.760;19.604;2024-03-08T05:37:04;100677.41;;;6.66;98.37
28628;BME280;15815;46.760;19.604;2024-03-08T05:39:29;100681.75;;;6.63;98.71
28628;BME280;15815;46.760;19.604;2024-03-08T05:41:55;100685.53;;;6.74;98.92
28628;BME280;15815;46.760;19.604;2024-03-08T05:47:29;100709.75;;;6.67;98.18
28628;BME280;15815;46.760;19.604;2024-03-08T05:50:05;100698.44;;;6.60;99.07
28628;BME280;15815;46.760;19.604;2024-03-08T05:52:31;100701.50;;;6.55;98.92
28628;BME280;15815;46.760;19.604;2024-03-08T05:54:57;100683.88;;;6.50;98.39
28628;BME280;15815;46.760;19.604;2024-03-08T05:57:22;100706.19;;;6.50;98.56
28628;BME280;15815;46.760;19.604;2024-03-08T05:59:50;100689.44;;;6.50;98.53
28628;BME280;15815;46.760;19.604;2024-03-08T06:02:15;100658.16;;;6.41;98.23
28628;BME280;15815;46.760;19.604;2024-03-08T06:04:52;100696.72;;;6.55;97.69
28628;BME280;15815;46.760;19.604;2024-03-08T06:07:17;100679.81;;;6.48;98.13
28628;BME280;15815;46.760;19.604;2024-03-08T06:09:43;100661.81;;;6.45;98.13
28628;BME280;15815;46.760;19.604;2024-03-08T06:12:09;100687.09;;;6.53;97.63
28628;BME280;15815;46.760;19.604;2024-03-08T06:14:37;100689.31;;;6.43;97.78
28628;BME280;15815;46.760;19.604;2024-03-08T06:17:03;100705.63;;;6.61;98.24
28628;BME280;15815;46.760;19.604;2024-03-08T06:19:36;100709.13;;;6.77;97.79
28628;BME280;15815;46.760;19.604;2024-03-08T06:22:02;100697.31;;;6.64;96.97
28628;BME280;15815;46.760;19.604;2024-03-08T06:24:28;100696.06;;;6.62;96.62
28628;BME280;15815;46.760;19.604;2024-03-08T06:26:53;100699.31;;;6.64;95.74
28628;BME280;15815;46.760;19.604;2024-03-08T06:29:19;100707.44;;;6.72;95.91
28628;BME280;15815;46.760;19.604;2024-03-08T06:31:44;100704.91;;;6.64;95.02
28628;BME280;15815;46.760;19.604;2024-03-08T06:34:10;100709.13;;;6.77;94.89
28628;BME280;15815;46.760;19.604;2024-03-08T06:36:39;100708.19;;;6.69;94.92
28628;BME280;15815;46.760;19.604;2024-03-08T06:39:05;100707.00;;;6.90;94.53
28628;BME280;15815;46.760;19.604;2024-03-08T06:41:30;100718.66;;;7.15;94.40
28628;BME280;15815;46.760;19.604;2024-03-08T06:43:56;100718.44;;;7.04;94.46
28628;BME280;15815;46.760;19.604;2024-03-08T06:46:21;100723.56;;;7.21;93.70
28628;BME280;15815;46.760;19.604;2024-03-08T06:48:47;100710.88;;;7.27;92.80
28628;BME280;15815;46.760;19.604;2024-03-08T06:51:41;100722.31;;;7.41;92.76
28628;BME280;15815;46.760;19.604;2024-03-08T06:54:07;100724.44;;;7.48;91.97
28628;BME280;15815;46.760;19.604;2024-03-08T06:56:33;100725.56;;;7.43;90.90
28628;BME280;15815;46.760;19.604;2024-03-08T06:58:58;100724.00;;;7.46;90.42
28628;BME280;15815;46.760;19.604;2024-03-08T07:01:23;100723.47;;;7.63;89.34
28628;BME280;15815;46.760;19.604;2024-03-08T07:03:49;100722.59;;;7.59;89.34
28628;BME280;15815;46.760;19.604;2024-03-08T07:06:24;100715.50;;;7.65;88.58
28628;BME280;15815;46.760;19.604;2024-03-08T07:08:49;100730.06;;;7.52;87.67
28628;BME280;15815;46.760;19.604;2024-03-08T07:11:15;100729.81;;;7.60;89.37
28628;BME280;15815;46.760;19.604;2024-03-08T07:13:40;100727.97;;;7.68;88.45
28628;BME280;15815;46.760;19.604;2024-03-08T07:16:06;100725.72;;;7.54;88.35
28628;BME280;15815;46.760;19.604;2024-03-08T07:18:31;100718.78;;;7.44;89.42
28628;BME280;15815;46.760;19.604;2024-03-08T07:20:57;100714.16;;;7.33;87.81
28628;BME280;15815;46.760;19.604;2024-03-08T07:23:22;100729.91;;;7.41;88.63
28628;BME280;15815;46.760;19.604;2024-03-08T07:25:48;100733.56;;;7.45;88.95
28628;BME280;15815;46.760;19.604;2024-03-08T07:28:14;100731.56;;;7.46;87.94
28628;BME280;15815;46.760;19.604;2024-03-08T07:30:39;100730.78;;;7.45;87.15
28628;BME280;15815;46.760;19.604;2024-03-08T07:33:05;100734.09;;;7.54;87.44
28628;BME280;15815;46.760;19.604;2024-03-08T07:35:31;100733.56;;;7.45;87.27
28628;BME280;15815;46.760;19.604;2024-03-08T07:37:57;100728.56;;;7.35;87.32
28628;BME280;15815;46.760;19.604;2024-03-08T07:40:22;100730.19;;;7.36;87.71
28628;BME280;15815;46.760;19.604;2024-03-08T07:42:58;100725.91;;;7.19;86.67
28628;BME280;15815;46.760;19.604;2024-03-08T07:45:24;100737.91;;;7.20;87.65
28628;BME280;15815;46.760;19.604;2024-03-08T07:47:49;100724.41;;;7.02;87.64
28628;BME280;15815;46.760;19.604;2024-03-08T07:50:15;100736.22;;;7.15;88.17
28628;BME280;15815;46.760;19.604;2024-03-08T07:52:41;100733.94;;;7.21;88.19
28628;BME280;15815;46.760;19.604;2024-03-08T07:55:06;100708.88;;;7.05;87.55
28628;BME280;15815;46.760;19.604;2024-03-08T07:57:32;100729.81;;;7.15;87.58
28628;BME280;15815;46.760;19.604;2024-03-08T07:59:58;100732.25;;;7.16;86.82
28628;BME280;15815;46.760;19.604;2024-03-08T08:02:23;100742.53;;;7.12;86.89
28628;BME280;15815;46.760;19.604;2024-03-08T08:04:58;100742.63;;;7.16;87.69
28628;BME280;15815;46.760;19.604;2024-03-08T08:07:23;100732.13;;;7.32;87.93
28628;BME280;15815;46.760;19.604;2024-03-08T08:09:49;100730.44;;;7.27;87.51
28628;BME280;15815;46.760;19.604;2024-03-08T08:12:25;100732.97;;;7.36;88.01
28628;BME280;15815;46.760;19.604;2024-03-08T08:14:51;100735.53;;;7.22;87.45
28628;BME280;15815;46.760;19.604;2024-03-08T08:17:17;100732.31;;;7.20;87.74
28628;BME280;15815;46.760;19.604;2024-03-08T08:19:46;100724.34;;;7.22;87.50
28628;BME280;15815;46.760;19.604;2024-03-08T08:22:12;100733.56;;;7.22;87.37
28628;BME280;15815;46.760;19.604;2024-03-08T08:24:37;100751.97;;;7.46;86.68
28628;BME280;15815;46.760;19.604;2024-03-08T08:27:12;100726.16;;;7.33;86.61
28628;BME280;15815;46.760;19.604;2024-03-08T08:29:38;100744.38;;;7.47;86.60
28628;BME280;15815;46.760;19.604;2024-03-08T08:32:03;100735.34;;;7.34;86.42
28628;BME280;15815;46.760;19.604;2024-03-08T08:34:29;100726.59;;;7.35;85.92
28628;BME280;15815;46.760;19.604;2024-03-08T08:36:55;100750.78;;;7.47;85.64
28628;BME280;15815;46.760;19.604;2024-03-08T08:39:20;100741.69;;;7.54;85.84
28628;BME280;15815;46.760;19.604;2024-03-08T08:41:46;100733.69;;;7.52;85.00
28628;BME280;15815;46.760;19.604;2024-03-08T08:44:12;100742.75;;;7.68;85.32
28628;BME280;15815;46.760;19.604;2024-03-08T08:46:55;100728.56;;;7.58;85.62
28628;BME280;15815;46.760;19.604;2024-03-08T08:49:20;100748.53;;;7.56;85.01
28628;BME280;15815;46.760;19.604;2024-03-08T08:51:52;100740.13;;;7.56;86.14
28628;BME280;15815;46.760;19.604;2024-03-08T08:54:18;100733.69;;;7.52;85.90
28628;BME280;15815;46.760;19.604;2024-03-08T08:57:14;100742.19;;;7.59;84.93
28628;BME280;15815;46.760;19.604;2024-03-08T08:59:40;100751.47;;;7.40;85.38
28628;BME280;15815;46.760;19.604;2024-03-08T09:02:06;100729.38;;;7.35;85.04
28628;BME280;15815;46.760;19.604;2024-03-08T09:04:38;100725.66;;;7.51;85.25
28628;BME280;15815;46.760;19.604;2024-03-08T09:07:03;100753.19;;;7.71;85.64
28628;BME280;15815;46.760;19.604;2024-03-08T09:09:29;100715.50;;;7.65;85.11
28628;BME280;15815;46.760;19.604;2024-03-08T09:11:54;100729.38;;;7.58;85.00
28628;BME280;15815;46.760;19.604;2024-03-08T09:14:20;100721.00;;;7.58;85.14
28628;BME280;15815;46.760;19.604;2024-03-08T09:16:55;100733.19;;;7.69;84.97
28628;BME280;15815;46.760;19.604;2024-03-08T09:19:20;100715.41;;;7.58;84.80
28628;BME280;15815;46.760;19.604;2024-03-08T09:21:46;100736.25;;;7.64;85.00
28628;BME280;15815;46.760;19.604;2024-03-08T09:24:12;100727.88;;;7.64;85.42
28628;BME280;15815;46.760;19.604;2024-03-08T09:26:37;100724.84;;;7.50;85.83
28628;BME280;15815;46.760;19.604;2024-03-08T09:29:03;100718.88;;;7.29;86.10
28628;BME280;15815;46.760;19.604;2024-03-08T09:31:29;100723.19;;;7.46;85.48
28628;BME280;15815;46.760;19.604;2024-03-08T09:33:54;100702.97;;;7.33;85.54
28628;BME280;15815;46.760;19.604;2024-03-08T09:36:20;100717.75;;;7.56;86.22
28628;BME280;15815;46.760;19.604;2024-03-08T09:38:58;100731.84;;;7.63;85.84
28628;BME280;15815;46.760;19.604;2024-03-08T09:41:24;100731.72;;;7.79;86.04
28628;BME280;15815;46.760;19.604;2024-03-08T09:43:50;100727.28;;;7.52;85.57
28628;BME280;15815;46.760;19.604;2024-03-08T09:46:18;100742.06;;;7.75;85.34
28628;BME280;15815;46.760;19.604;2024-03-08T09:48:44;100740.38;;;7.70;85.31
28628;BME280;15815;46.760;19.604;2024-03-08T09:51:10;100727.50;;;7.66;85.22
28628;BME280;15815;46.760;19.604;2024-03-08T09:53:36;100734.38;;;7.68;84.97
28628;BME280;15815;46.760;19.604;2024-03-08T09:56:05;100745.03;;;7.63;85.40
28628;BME280;15815;46.760;19.604;2024-03-08T09:58:31;100735.41;;;7.60;86.44
28628;BME280;15815;46.760;19.604;2024-03-08T10:00:57;100728.09;;;7.52;85.74
28628;BME280;15815;46.760;19.604;2024-03-08T10:03:26;100739.38;;;7.59;85.68
28628;BME280;15815;46.760;19.604;2024-03-08T10:05:51;100743.03;;;7.63;85.56
28628;BME280;15815;46.760;19.604;2024-03-08T10:08:19;100735.78;;;7.59;84.77
28628;BME280;15815;46.760;19.604;2024-03-08T10:10:47;100743.63;;;7.72;85.21
28628;BME280;15815;46.760;19.604;2024-03-08T10:13:13;100750.69;;;7.66;84.99
28628;BME280;15815;46.760;19.604;2024-03-08T10:15:40;100744.22;;;7.62;85.49
28628;BME280;15815;46.760;19.604;2024-03-08T10:18:10;100756.16;;;7.59;85.58
28628;BME280;15815;46.760;19.604;2024-03-08T10:20:36;100753.00;;;7.61;86.09
28628;BME280;15815;46.760;19.604;2024-03-08T10:23:04;100746.66;;;7.64;86.47
28628;BME280;15815;46.760;19.604;2024-03-08T10:25:31;100740.25;;;7.63;86.40
28628;BME280;15815;46.760;19.604;2024-03-08T10:27:56;100744.22;;;7.62;85.86
28628;BME280;15815;46.760;19.604;2024-03-08T10:30:22;100745.81;;;7.86;85.52
28628;BME280;15815;46.760;19.604;2024-03-08T10:32:48;100743.84;;;7.87;85.21
28628;BME280;15815;46.760;19.604;2024-03-08T10:35:14;100731.03;;;7.86;85.11
28628;BME280;15815;46.760;19.604;2024-03-08T10:40:48;100740.50;;;8.04;85.00
28628;BME280;15815;46.760;19.604;2024-03-08T10:43:24;100726.69;;;8.18;84.58
28628;BME280;15815;46.760;19.604;2024-03-08T10:45:54;100712.59;;;8.11;84.46
28628;BME280;15815;46.760;19.604;2024-03-08T10:48:31;100737.00;;;8.37;84.19
28628;BME280;15815;46.760;19.604;2024-03-08T10:51:00;100724.69;;;8.45;84.26
28628;BME280;15815;46.760;19.604;2024-03-08T10:53:28;100729.41;;;8.38;83.53
28628;BME280;15815;46.760;19.604;2024-03-08T10:55:58;100733.91;;;8.19;83.88
28628;BME280;15815;46.760;19.604;2024-03-08T10:58:27;100733.09;;;8.19;83.91
28628;BME280;15815;46.760;19.604;2024-03-08T11:00:54;100688.72;;;7.91;84.90
28628;BME280;15815;46.760;19.604;2024-03-08T11:03:49;100726.66;;;8.15;85.35
28628;BME280;15815;46.760;19.604;2024-03-08T11:06:16;100722.56;;;8.09;84.85
28628;BME280;15815;46.760;19.604;2024-03-08T11:08:43;100711.09;;;7.91;84.73
28628;BME280;15815;46.760;19.604;2024-03-08T11:11:26;100734.38;;;7.95;85.19
28628;BME280;15815;46.760;19.604;2024-03-08T11:13:54;100727.03;;;8.13;85.46
28628;BME280;15815;46.760;19.604;2024-03-08T11:16:37;100729.38;;;8.07;85.10
28628;BME280;15815;46.760;19.604;2024-03-08T11:19:23;100717.94;;;7.93;84.48
28628;BME280;15815;46.760;19.604;2024-03-08T11:22:00;100716.84;;;7.98;84.62
28628;BME280;15815;46.760;19.604;2024-03-08T11:24:26;100726.84;;;7.99;84.32
28628;BME280;15815;46.760;19.604;2024-03-08T11:26:56;100705.63;;;7.71;84.77
28628;BME280;15815;46.760;19.604;2024-03-08T11:34:49;100716.13;;;8.04;84.71
28628;BME280;15815;46.760;19.604;2024-03-08T11:37:19;100706.50;;;8.02;85.57
28628;BME280;15815;46.760;19.604;2024-03-08T11:42:48;100712.28;;;7.90;85.81
28628;BME280;15815;46.760;19.604;2024-03-08T11:45:18;100702.28;;;7.89;86.56
28628;BME280;15815;46.760;19.604;2024-03-08T11:47:44;100707.44;;;7.87;86.72
28628;BME280;15815;46.760;19.604;2024-03-08T11:50:13;100706.81;;;7.97;86.75
28628;BME280;15815;46.760;19.604;2024-03-08T11:52:39;100711.00;;;8.10;86.45
28628;BME280;15815;46.760;19.604;2024-03-08T11:55:05;100692.97;;;8.07;85.98
28628;BME280;15815;46.760;19.604;2024-03-08T11:57:37;100701.19;;;8.23;86.23
28628;BME280;15815;46.760;19.604;2024-03-08T12:00:03;100698.81;;;8.25;86.43
28628;BME280;15815;46.760;19.604;2024-03-08T12:02:29;100694.09;;;8.03;85.94
28628;BME280;15815;46.760;19.604;2024-03-08T12:04:59;100685.03;;;8.13;86.35
28628;BME280;15815;46.760;19.604;2024-03-08T12:07:26;100687.41;;;8.11;86.56
28628;BME280;15815;46.760;19.604;2024-03-08T12:10:17;100692.63;;;8.13;85.75
28628;BME280;15815;46.760;19.604;2024-03-08T12:12:46;100688.16;;;8.08;86.25
28628;BME280;15815;46.760;19.604;2024-03-08T12:15:12;100691.31;;;8.03;87.22
28628;BME280;15815;46.760;19.604;2024-03-08T12:17:38;100685.03;;;8.13;86.83
28628;BME280;15815;46.760;19.604;2024-03-08T12:20:30;100687.41;;;8.11;86.13
28628;BME280;15815;46.760;19.604;2024-03-08T12:22:57;100690.50;;;8.02;86.32
28628;BME280;15815;46.760;19.604;2024-03-08T12:25:25;100676.88;;;8.01;86.98
28628;BME280;15815;46.760;19.604;2024-03-08T12:28:15;100688.25;;;8.15;86.20
28628;BME280;15815;46.760;19.604;2024-03-08T12:30:51;100686.66;;;8.14;85.76
28628;BME280;15815;46.760;19.604;2024-03-08T12:33:16;100675.28;;;8.00;86.52
28628;BME280;15815;46.760;19.604;2024-03-08T12:35:55;100683.53;;;7.93;86.95
28628;BME280;15815;46.760;19.604;2024-03-08T12:38:21;100681.75;;;8.07;87.15
28628;BME280;15815;46.760;19.604;2024-03-08T12:40:47;100673.66;;;7.99;86.65
28628;BME280;15815;46.760;19.604;2024-03-08T12:43:12;100685.00;;;8.10;87.27
28628;BME280;15815;46.760;19.604;2024-03-08T12:45:38;100679.25;;;7.99;87.29
28628;BME280;15815;46.760;19.604;2024-03-08T12:48:12;100683.00;;;8.10;86.71
28628;BME280;15815;46.760;19.604;2024-03-08T12:50:39;100676.16;;;8.07;86.97
28628;BME280;15815;46.760;19.604;2024-03-08T12:53:04;100681.81;;;8.11;87.21
28628;BME280;15815;46.760;19.604;2024-03-08T12:56:03;100683.34;;;8.05;87.83
28628;BME280;15815;46.760;19.604;2024-03-08T12:58:29;100677.94;;;7.93;87.64
28628;BME280;15815;46.760;19.604;2024-03-08T13:00:54;100674.47;;;7.99;87.17
28628;BME280;15815;46.760;19.604;2024-03-08T13:03:20;100677.25;;;7.99;87.95
28628;BME280;15815;46.760;19.604;2024-03-08T13:05:45;100679.34;;;8.06;87.61
28628;BME280;15815;46.760;19.604;2024-03-08T13:08:11;100675.69;;;8.02;88.06
28628;BME280;15815;46.760;19.604;2024-03-08T13:10:36;100672.25;;;7.86;87.63
28628;BME280;15815;46.760;19.604;2024-03-08T13:13:02;100663.94;;;7.93;87.74
28628;BME280;15815;46.760;19.604;2024-03-08T13:15:27;100652.94;;;7.77;88.19